Terminal Aerodrome Forecast
Issued by NWS

Home | Current Version | Previous Version | Text Only | Print | Product List | Glossary On
Versions: 1 2 3 4 5 6 7 8 9 10 11 12 13 14 15 16 17
000
FTUS41 KOKX 281400 AAA
TAFHPN
TAF AMD
KHPN 281431Z 2815/2912 25007KT 6SM -SHRA BR SCT030 OVC060
     FM281600 27008KT P6SM SCT030 OVC050
      TEMPO 2817/2821 BKN030
     FM282300 31007KT P6SM SCT025 BKN050
     FM290300 33006KT P6SM SCT040 BKN100
     FM290600 33005KT P6SM FEW040 SCT250
      AMD NOT SKED=

USA.gov is the U.S. government's official web portal to all federal, state and local government web resources and services.